createdAt,value
2023-01-03T00:02:21.435Z,94.56
2023-01-03T00:04:50.002Z,95.67
2023-01-03T00:07:34.470Z,96.51
2023-01-03T00:10:07.343Z,97.68
2023-01-03T00:12:33.966Z,98.81
2023-01-03T00:15:01.252Z,100.00
2023-01-03T00:17:29.415Z,100.00
2023-01-03T00:19:56.115Z,100.00
2023-01-03T00:22:22.795Z,100.00
2023-01-03T00:24:49.945Z,100.00
2023-01-03T00:27:16.801Z,100.00
2023-01-03T00:29:43.469Z,100.00
2023-01-03T00:32:10.389Z,100.00
2023-01-03T00:34:37.162Z,100.00
2023-01-03T00:37:03.726Z,100.00
2023-01-03T00:39:30.358Z,100.00
2023-01-03T00:41:57.271Z,100.00
2023-01-03T00:44:23.891Z,100.00
2023-01-03T00:46:50.473Z,100.00
2023-01-03T00:49:17.153Z,100.00
2023-01-03T00:51:44.277Z,100.00
2023-01-03T00:54:12.719Z,100.00
2023-01-03T00:56:41.906Z,100.00
2023-01-03T00:59:09.454Z,100.00
2023-01-03T01:01:46.573Z,100.00
2023-01-03T01:04:24.377Z,100.00
2023-01-03T01:06:53.878Z,100.00
2023-01-03T01:09:26.842Z,100.00
2023-01-03T01:11:53.815Z,100.00
2023-01-03T01:14:22.499Z,100.00
2023-01-03T01:17:00.904Z,100.00
2023-01-03T01:19:30.666Z,100.00
2023-01-03T01:21:58.129Z,100.00
2023-01-03T01:24:25.219Z,100.00
2023-01-03T01:26:52.403Z,100.00
2023-01-03T01:29:20.013Z,100.00
2023-01-03T01:31:47.707Z,100.00
2023-01-03T01:34:15.101Z,100.00
2023-01-03T01:36:43.472Z,100.00
2023-01-03T01:39:16.487Z,100.00
2023-01-03T01:42:03.332Z,100.00
2023-01-03T01:44:56.221Z,100.00
2023-01-03T01:47:34.598Z,100.00
2023-01-03T01:50:18.074Z,100.00
2023-01-03T01:53:02.780Z,100.00
2023-01-03T01:55:42.120Z,100.00
2023-01-03T01:58:09.552Z,100.00
2023-01-03T02:00:37.797Z,100.00
2023-01-03T02:03:04.887Z,100.00
2023-01-03T02:05:34.120Z,100.00
2023-01-03T02:08:01.560Z,100.00
2023-01-03T02:10:56.371Z,100.00
2023-01-03T02:13:37.700Z,100.00
2023-01-03T02:16:28.046Z,100.00
2023-01-03T02:19:42.594Z,100.00
2023-01-03T02:22:26.991Z,100.00
2023-01-03T02:25:17.765Z,100.00
2023-01-03T02:28:07.281Z,100.00
2023-01-03T02:30:38.778Z,100.00
2023-01-03T02:33:18.285Z,100.00
2023-01-03T02:36:03.077Z,100.00
2023-01-03T02:39:01.588Z,100.00
2023-01-03T02:41:51.228Z,100.00
2023-01-03T02:44:28.169Z,100.00
2023-01-03T02:47:01.538Z,100.00
2023-01-03T02:49:35.091Z,100.00
2023-01-03T02:52:06.490Z,100.00
2023-01-03T02:54:40.290Z,100.00
2023-01-03T02:57:11.375Z,100.00
2023-01-03T02:59:43.978Z,100.00
2023-01-03T03:02:12.451Z,100.00
2023-01-03T03:04:40.702Z,100.00
2023-01-03T03:07:19.731Z,100.00
2023-01-03T03:10:05.108Z,100.00
2023-01-03T03:12:52.131Z,100.00
2023-01-03T03:15:23.060Z,100.00
2023-01-03T03:17:54.086Z,100.00
2023-01-03T03:20:39.163Z,100.00
2023-01-03T03:23:32.624Z,100.00
2023-01-03T03:26:06.113Z,100.00
2023-01-03T03:28:37.032Z,100.00
2023-01-03T03:31:12.601Z,100.00
2023-01-03T03:33:47.290Z,100.00
2023-01-03T03:36:25.453Z,100.00
2023-01-03T03:38:52.269Z,100.00
2023-01-03T03:42:01.854Z,100.00
2023-01-03T03:45:00.933Z,100.00
2023-01-03T03:47:40.649Z,100.00
2023-01-03T03:50:22.188Z,100.00
2023-01-03T03:52:53.237Z,100.00
2023-01-03T03:55:25.710Z,100.00
2023-01-03T03:57:58.827Z,100.00
2023-01-03T04:00:31.553Z,100.00
2023-01-03T04:03:01.132Z,100.00
2023-01-03T04:05:34.419Z,100.00
2023-01-03T04:08:01.033Z,100.00
2023-01-03T04:10:30.221Z,100.00
2023-01-03T04:13:00.638Z,100.00
2023-01-03T04:15:27.166Z,100.00
2023-01-03T04:17:53.721Z,100.00
2023-01-03T04:20:20.334Z,100.00
2023-01-03T04:22:46.962Z,100.00
2023-01-03T04:25:13.623Z,100.00
2023-01-03T04:27:40.201Z,100.00
2023-01-03T04:30:08.763Z,100.00
2023-01-03T04:32:35.331Z,100.00
2023-01-03T04:35:01.865Z,100.00
2023-01-03T04:37:28.435Z,100.00
2023-01-03T04:39:54.977Z,100.00
2023-01-03T04:42:39.995Z,100.00
2023-01-03T04:45:07.329Z,100.00
2023-01-03T04:47:33.938Z,100.00
2023-01-03T04:50:00.488Z,100.00
2023-01-03T04:52:29.642Z,100.00
2023-01-03T04:54:56.296Z,100.00
2023-01-03T04:57:22.875Z,100.00
2023-01-03T04:59:49.452Z,100.00
2023-01-03T05:02:16.140Z,100.00
2023-01-03T05:04:42.866Z,100.00
2023-01-03T05:07:09.509Z,100.00
2023-01-03T05:09:35.984Z,100.00
2023-01-03T05:12:02.547Z,100.00
2023-01-03T05:14:29.014Z,100.00
2023-01-03T05:16:55.607Z,100.00
2023-01-03T05:19:22.220Z,100.00
2023-01-03T05:22:07.272Z,100.00
2023-01-03T05:24:56.473Z,100.00
2023-01-03T05:27:23.544Z,100.00
2023-01-03T05:29:52.762Z,100.00
2023-01-03T05:32:19.365Z,100.00
2023-01-03T05:34:45.929Z,100.00
2023-01-03T05:37:12.707Z,100.00
2023-01-03T05:39:39.337Z,100.00
2023-01-03T05:42:06.042Z,100.00
2023-01-03T05:44:34.228Z,100.00
2023-01-03T05:47:03.290Z,100.00
2023-01-03T05:49:29.909Z,100.00
2023-01-03T05:51:56.501Z,100.00
2023-01-03T05:54:23.066Z,100.00
2023-01-03T05:56:51.294Z,100.00
2023-01-03T05:59:18.799Z,100.00
2023-01-03T06:01:45.349Z,100.00
2023-01-03T06:04:11.979Z,100.00
2023-01-03T06:06:38.498Z,100.00
2023-01-03T06:09:05.528Z,100.00
2023-01-03T06:11:32.062Z,100.00
2023-01-03T06:14:00.089Z,100.00
2023-01-03T06:16:45.052Z,100.00
2023-01-03T06:19:12.166Z,100.00
2023-01-03T06:21:38.773Z,100.00
2023-01-03T06:24:05.686Z,100.00
2023-01-03T06:26:32.242Z,100.00
2023-01-03T06:28:59.063Z,100.00
2023-01-03T06:31:26.106Z,100.00
2023-01-03T06:33:52.718Z,100.00
2023-01-03T06:36:20.893Z,100.00
2023-01-03T06:38:48.742Z,100.00
2023-01-03T06:41:16.192Z,100.00
2023-01-03T06:43:42.747Z,100.00
2023-01-03T06:46:29.973Z,100.00
2023-01-03T06:49:15.292Z,100.00
2023-01-03T06:52:00.509Z,100.00
2023-01-03T06:54:29.944Z,100.00
2023-01-03T06:56:56.982Z,100.00
2023-01-03T06:59:23.908Z,100.00
2023-01-03T07:01:51.902Z,100.00
2023-01-03T07:04:19.607Z,100.00
2023-01-03T07:06:46.419Z,100.00
2023-01-03T07:09:13.399Z,100.00
2023-01-03T07:11:41.178Z,100.00
2023-01-03T07:14:09.536Z,100.00
2023-01-03T07:16:39.334Z,100.00
2023-01-03T07:19:07.782Z,100.00
2023-01-03T07:21:36.689Z,100.00
2023-01-03T07:24:05.773Z,100.00
2023-01-03T07:26:34.118Z,100.00
2023-01-03T07:29:03.100Z,100.00
2023-01-03T07:31:29.680Z,100.00
2023-01-03T07:33:57.235Z,100.00
2023-01-03T07:36:23.805Z,100.00
2023-01-03T07:38:50.571Z,100.00
2023-01-03T07:41:18.100Z,100.00
2023-01-03T07:43:47.184Z,100.00
2023-01-03T07:46:18.316Z,100.00
2023-01-03T07:48:47.072Z,100.00
2023-01-03T07:51:16.182Z,100.00
2023-01-03T07:53:45.312Z,100.00
2023-01-03T07:56:15.158Z,100.00
2023-01-03T07:58:43.367Z,100.00
2023-01-03T08:01:15.293Z,100.00
2023-01-03T08:03:42.802Z,100.00
2023-01-03T08:06:11.641Z,100.00
2023-01-03T08:08:38.877Z,100.00
2023-01-03T08:11:24.613Z,100.00
2023-01-03T08:13:53.971Z,100.00
2023-01-03T08:16:20.564Z,100.00
2023-01-03T08:18:47.124Z,100.00
2023-01-03T08:21:15.619Z,100.00
2023-01-03T08:23:43.080Z,100.00
2023-01-03T08:26:12.598Z,100.00
2023-01-03T08:28:40.684Z,100.00
2023-01-03T08:31:22.384Z,100.00
2023-01-03T08:33:54.875Z,100.00
2023-01-03T08:36:23.623Z,100.00
2023-01-03T08:38:58.120Z,100.00
2023-01-03T08:41:28.652Z,100.00
2023-01-03T08:43:55.864Z,100.00
2023-01-03T08:46:22.792Z,100.00
2023-01-03T08:48:49.614Z,100.00
2023-01-03T08:51:16.303Z,100.00
2023-01-03T08:53:42.851Z,100.00
2023-01-03T08:56:09.375Z,100.00
2023-01-03T08:58:36.106Z,100.00
2023-01-03T09:01:03.990Z,100.00
2023-01-03T09:03:30.817Z,100.00
2023-01-03T09:06:01.892Z,100.00
2023-01-03T09:08:32.894Z,100.00
2023-01-03T09:11:03.781Z,100.00
2023-01-03T09:13:30.298Z,100.00
2023-01-03T09:16:05.091Z,100.00
2023-01-03T09:18:31.752Z,100.00
2023-01-03T09:20:59.966Z,100.00
2023-01-03T09:23:26.547Z,100.00
2023-01-03T09:25:53.210Z,100.00
2023-01-03T09:28:19.789Z,100.00
2023-01-03T09:30:46.347Z,100.00
2023-01-03T09:33:12.936Z,100.00
2023-01-03T09:35:39.585Z,100.00
2023-01-03T09:38:06.516Z,100.00
2023-01-03T09:40:38.161Z,100.00
2023-01-03T09:43:19.897Z,100.00
2023-01-03T09:45:52.241Z,100.00
2023-01-03T09:48:25.522Z,100.00
2023-01-03T09:51:17.024Z,100.00
2023-01-03T09:54:00.289Z,100.00
2023-01-03T09:56:45.271Z,100.00
2023-01-03T09:59:36.549Z,100.00
2023-01-03T10:02:54.206Z,100.00
2023-01-03T10:05:33.077Z,100.00
2023-01-03T10:08:21.456Z,100.00
2023-01-03T10:11:00.070Z,100.00
2023-01-03T10:13:39.476Z,100.00
2023-01-03T10:16:17.740Z,100.00
2023-01-03T10:19:03.465Z,100.00
2023-01-03T10:21:45.644Z,100.00
2023-01-03T10:24:20.939Z,100.00
2023-01-03T10:26:51.781Z,100.00
2023-01-03T10:29:19.244Z,100.00
2023-01-03T10:32:21.059Z,100.00
2023-01-03T10:35:20.336Z,100.00
2023-01-03T10:37:47.949Z,100.00
2023-01-03T10:40:14.998Z,100.00
2023-01-03T10:42:42.880Z,100.00
2023-01-03T10:45:16.888Z,100.00
2023-01-03T10:47:43.939Z,100.00
2023-01-03T10:50:21.994Z,100.00
2023-01-03T10:52:59.978Z,100.00
2023-01-03T10:55:27.530Z,100.00
2023-01-03T10:57:59.120Z,100.00
2023-01-03T11:00:31.583Z,100.00
2023-01-03T11:03:20.992Z,99.78
2023-01-03T11:05:56.776Z,100.00
2023-01-03T11:08:38.373Z,100.00
2023-01-03T11:11:04.874Z,99.12
2023-01-03T11:13:41.761Z,99.64
2023-01-03T11:16:17.810Z,100.00
2023-01-03T11:18:50.201Z,99.25
2023-01-03T11:21:26.697Z,94.19
2023-01-03T11:24:15.018Z,86.37
2023-01-03T11:27:08.473Z,82.25
2023-01-03T11:29:48.115Z,79.76
2023-01-03T11:32:29.510Z,77.44
2023-01-03T11:35:23.531Z,74.90
2023-01-03T11:38:06.986Z,77.72
2023-01-03T11:40:36.534Z,80.96
2023-01-03T11:43:27.443Z,83.21
2023-01-03T11:46:08.346Z,85.27
2023-01-03T11:48:53.512Z,86.75
2023-01-03T11:51:25.786Z,88.01
2023-01-03T11:54:09.218Z,88.88
2023-01-03T11:56:43.259Z,89.73
2023-01-03T11:59:37.524Z,89.89
2023-01-03T12:02:38.024Z,90.86
2023-01-03T12:05:36.244Z,91.16
2023-01-03T12:08:11.685Z,90.82
2023-01-03T12:11:15.115Z,91.83
2023-01-03T12:14:06.589Z,91.86
2023-01-03T12:16:43.987Z,92.30
2023-01-03T12:19:34.153Z,92.02
2023-01-03T12:22:16.841Z,92.38
2023-01-03T12:24:52.642Z,93.06
2023-01-03T12:27:41.588Z,93.68
2023-01-03T12:30:25.753Z,93.39
2023-01-03T12:33:01.809Z,93.12
2023-01-03T12:35:37.658Z,91.70
2023-01-03T12:38:06.030Z,91.31
2023-01-03T12:40:51.800Z,90.99
2023-01-03T12:43:27.257Z,91.88
2023-01-03T12:46:02.400Z,92.71
2023-01-03T12:49:04.846Z,93.41
2023-01-03T12:51:31.538Z,93.97
2023-01-03T12:54:33.118Z,94.56
2023-01-03T12:57:37.507Z,94.98
2023-01-03T13:00:05.210Z,95.16
2023-01-03T13:02:43.840Z,95.19
2023-01-03T13:05:18.632Z,95.73
2023-01-03T13:07:53.776Z,95.28
2023-01-03T13:10:25.457Z,95.68
2023-01-03T13:12:55.403Z,96.19
2023-01-03T13:15:36.779Z,97.63
2023-01-03T13:18:22.060Z,98.52
2023-01-03T13:20:53.778Z,98.19
2023-01-03T13:23:53.637Z,98.09
2023-01-03T13:26:26.284Z,98.33
2023-01-03T13:29:13.431Z,97.85
2023-01-03T13:31:40.848Z,98.10
2023-01-03T13:34:25.722Z,98.34
2023-01-03T13:37:07.408Z,98.31
2023-01-03T13:39:52.226Z,98.54
2023-01-03T13:42:27.299Z,99.51
2023-01-03T13:45:15.677Z,100.00
2023-01-03T13:47:45.577Z,100.00
2023-01-03T13:50:24.667Z,100.00
2023-01-03T13:53:05.410Z,100.00
2023-01-03T13:55:35.060Z,100.00
2023-01-03T13:58:02.096Z,100.00
2023-01-03T14:00:30.596Z,100.00
2023-01-03T14:03:14.427Z,100.00
2023-01-03T14:06:12.967Z,100.00
2023-01-03T14:09:07.675Z,100.00
2023-01-03T14:12:03.793Z,100.00
2023-01-03T14:14:36.186Z,100.00
2023-01-03T14:17:04.164Z,100.00
2023-01-03T14:19:40.562Z,100.00
2023-01-03T14:22:28.023Z,100.00
2023-01-03T14:24:58.078Z,100.00
2023-01-03T14:27:32.459Z,100.00
2023-01-03T14:29:59.137Z,100.00
2023-01-03T14:32:33.992Z,100.00
2023-01-03T14:35:02.280Z,100.00
2023-01-03T14:37:28.864Z,100.00
2023-01-03T14:40:00.997Z,100.00
2023-01-03T14:42:28.130Z,100.00
2023-01-03T14:45:03.275Z,100.00
2023-01-03T14:47:37.559Z,100.00
2023-01-03T14:50:06.719Z,100.00
2023-01-03T14:52:40.412Z,100.00
2023-01-03T14:55:12.912Z,100.00
2023-01-03T14:57:40.448Z,100.00
2023-01-03T15:00:11.793Z,100.00
2023-01-03T15:02:41.000Z,100.00
2023-01-03T15:05:30.151Z,100.00
2023-01-03T15:08:14.991Z,100.00
2023-01-03T15:10:59.750Z,100.00
2023-01-03T15:13:42.391Z,100.00
2023-01-03T15:16:23.539Z,100.00
2023-01-03T15:18:50.311Z,100.00
2023-01-03T15:21:21.802Z,100.00
2023-01-03T15:23:50.073Z,100.00
2023-01-03T15:26:40.807Z,100.00
2023-01-03T15:29:24.307Z,100.00
2023-01-03T15:31:53.925Z,100.00
2023-01-03T15:34:35.749Z,100.00
2023-01-03T15:37:14.726Z,100.00
2023-01-03T15:39:48.632Z,100.00
2023-01-03T15:42:49.151Z,100.00
2023-01-03T15:45:27.816Z,100.00
2023-01-03T15:47:58.414Z,100.00
2023-01-03T15:50:36.446Z,100.00
2023-01-03T15:53:02.951Z,100.00
2023-01-03T15:55:29.438Z,100.00
2023-01-03T15:57:56.406Z,100.00
2023-01-03T16:00:24.354Z,100.00
2023-01-03T16:02:51.222Z,100.00
2023-01-03T16:05:22.616Z,100.00
2023-01-03T16:07:50.343Z,100.00
2023-01-03T16:10:17.047Z,100.00
2023-01-03T16:12:44.221Z,100.00
2023-01-03T16:15:18.977Z,100.00
2023-01-03T16:17:46.054Z,100.00
2023-01-03T16:20:18.006Z,100.00
2023-01-03T16:22:57.335Z,100.00
2023-01-03T16:25:27.267Z,100.00
2023-01-03T16:27:53.873Z,100.00
2023-01-03T16:30:20.410Z,100.00
2023-01-03T16:32:46.968Z,100.00
2023-01-03T16:35:18.469Z,100.00
2023-01-03T16:37:45.159Z,100.00
2023-01-03T16:40:20.377Z,100.00
2023-01-03T16:42:48.010Z,100.00
2023-01-03T16:45:15.229Z,100.00
2023-01-03T16:47:43.121Z,100.00
2023-01-03T16:50:16.431Z,100.00
2023-01-03T16:52:54.592Z,100.00
2023-01-03T16:55:30.269Z,100.00
2023-01-03T16:57:57.477Z,100.00
2023-01-03T17:00:27.007Z,100.00
2023-01-03T17:02:59.451Z,100.00
2023-01-03T17:05:28.212Z,100.00
2023-01-03T17:08:05.175Z,100.00
2023-01-03T17:10:39.021Z,100.00
2023-01-03T17:13:12.486Z,100.00
2023-01-03T17:15:40.628Z,100.00
2023-01-03T17:18:17.800Z,100.00
2023-01-03T17:20:44.355Z,100.00
2023-01-03T17:23:11.157Z,100.00
2023-01-03T17:25:39.843Z,100.00
2023-01-03T17:28:06.407Z,100.00
2023-01-03T17:30:33.714Z,100.00
2023-01-03T17:33:01.443Z,100.00
2023-01-03T17:35:28.192Z,100.00
2023-01-03T17:38:24.604Z,100.00
2023-01-03T17:40:45.480Z,100.00
2023-01-03T17:43:18.690Z,100.00
2023-01-03T17:46:04.248Z,100.00
2023-01-03T17:48:49.246Z,100.00
2023-01-03T17:51:15.924Z,100.00
2023-01-03T17:53:43.636Z,100.00
2023-01-03T17:56:14.726Z,100.00
2023-01-03T17:58:42.077Z,100.00
2023-01-03T18:01:08.900Z,100.00
2023-01-03T18:03:36.711Z,100.00
2023-01-03T18:06:22.299Z,100.00
2023-01-03T18:08:50.512Z,100.00
2023-01-03T18:11:20.048Z,100.00
2023-01-03T18:13:48.634Z,100.00
2023-01-03T18:16:18.675Z,100.00
2023-01-03T18:18:45.766Z,100.00
2023-01-03T18:21:24.615Z,100.00
2023-01-03T18:23:56.164Z,100.00
2023-01-03T18:26:25.248Z,100.00
2023-01-03T18:28:51.764Z,100.00
2023-01-03T18:31:19.524Z,100.00
2023-01-03T18:33:46.316Z,100.00
2023-01-03T18:36:29.658Z,100.00
2023-01-03T18:39:01.759Z,100.00
2023-01-03T18:41:30.973Z,100.00
2023-01-03T18:43:58.173Z,100.00
2023-01-03T18:46:28.161Z,100.00
2023-01-03T18:48:54.921Z,100.00
2023-01-03T18:51:26.709Z,100.00
2023-01-03T18:53:58.052Z,100.00
2023-01-03T18:56:36.431Z,100.00
2023-01-03T18:59:11.451Z,100.00
2023-01-03T19:01:38.044Z,100.00
2023-01-03T19:04:04.771Z,100.00
2023-01-03T19:06:33.595Z,100.00
2023-01-03T19:09:06.278Z,100.00
2023-01-03T19:11:38.059Z,100.00
2023-01-03T19:14:04.624Z,100.00
2023-01-03T19:16:34.604Z,100.00
2023-01-03T19:19:03.311Z,100.00
2023-01-03T19:21:37.951Z,100.00
2023-01-03T19:24:17.247Z,100.00
2023-01-03T19:26:46.884Z,100.00
2023-01-03T19:29:20.604Z,100.00
2023-01-03T19:31:49.142Z,100.00
2023-01-03T19:34:20.935Z,100.00
2023-01-03T19:36:47.625Z,100.00
2023-01-03T19:39:15.521Z,100.00
2023-01-03T19:42:10.814Z,100.00
2023-01-03T19:44:37.596Z,100.00
2023-01-03T19:47:06.895Z,100.00
2023-01-03T19:49:33.463Z,100.00
2023-01-03T19:51:59.957Z,100.00
2023-01-03T19:54:26.513Z,100.00
2023-01-03T19:56:58.144Z,100.00
2023-01-03T19:59:28.715Z,100.00
2023-01-03T20:04:43.749Z,100.00
2023-01-03T20:07:14.260Z,100.00
2023-01-03T20:09:40.755Z,100.00
2023-01-03T20:12:13.450Z,100.00
2023-01-03T20:14:41.756Z,100.00
2023-01-03T20:17:28.506Z,100.00
2023-01-03T20:19:55.048Z,100.00
2023-01-03T20:23:03.638Z,100.00
2023-01-03T20:25:33.137Z,100.00
2023-01-03T20:28:01.199Z,100.00
2023-01-03T20:30:31.077Z,100.00
2023-01-03T20:32:57.788Z,100.00
2023-01-03T20:36:08.337Z,100.00
2023-01-03T20:38:16.979Z,100.00
2023-01-03T20:40:43.612Z,100.00
2023-01-03T20:43:13.750Z,100.00
2023-01-03T20:45:40.814Z,100.00
2023-01-03T20:48:15.811Z,100.00
2023-01-03T20:50:46.084Z,100.00
2023-01-03T20:53:22.098Z,100.00
2023-01-03T20:55:49.757Z,100.00
2023-01-03T20:58:18.407Z,100.00
2023-01-03T21:00:45.221Z,100.00
2023-01-03T21:03:12.128Z,100.00
2023-01-03T21:05:39.390Z,100.00
2023-01-03T21:08:25.558Z,100.00
2023-01-03T21:10:55.151Z,100.00
2023-01-03T21:13:22.526Z,100.00
2023-01-03T21:15:49.809Z,100.00
2023-01-03T21:18:17.273Z,100.00
2023-01-03T21:20:44.713Z,100.00
2023-01-03T21:23:22.828Z,100.00
2023-01-03T21:25:49.995Z,100.00
2023-01-03T21:28:16.481Z,100.00
2023-01-03T21:30:43.569Z,100.00
2023-01-03T21:33:17.116Z,100.00
2023-01-03T21:35:43.658Z,100.00
2023-01-03T21:38:11.030Z,100.00
2023-01-03T21:40:37.589Z,100.00
2023-01-03T21:43:05.261Z,100.00
2023-01-03T21:45:41.295Z,100.00
2023-01-03T21:48:13.759Z,100.00
2023-01-03T21:50:45.636Z,100.00
2023-01-03T21:53:14.490Z,100.00
2023-01-03T21:55:41.369Z,100.00
2023-01-03T21:58:08.132Z,100.00
2023-01-03T22:00:34.726Z,100.00
2023-01-03T22:03:19.867Z,100.00
2023-01-03T22:05:46.436Z,100.00
2023-01-03T22:08:13.009Z,100.00
2023-01-03T22:10:42.184Z,100.00
2023-01-03T22:13:10.622Z,100.00
2023-01-03T22:15:39.037Z,100.00
2023-01-03T22:18:07.741Z,100.00
2023-01-03T22:20:38.523Z,100.00
2023-01-03T22:23:06.750Z,100.00
2023-01-03T22:25:33.343Z,100.00
2023-01-03T22:28:00.409Z,100.00
2023-01-03T22:30:27.240Z,100.00
2023-01-03T22:32:58.669Z,100.00
2023-01-03T22:35:25.313Z,100.00
2023-01-03T22:37:51.839Z,100.00
2023-01-03T22:40:18.425Z,100.00
2023-01-03T22:42:44.947Z,100.00
2023-01-03T22:45:12.093Z,100.00
2023-01-03T22:47:38.956Z,100.00
2023-01-03T22:50:07.634Z,100.00
2023-01-03T22:52:39.547Z,100.00
2023-01-03T22:55:08.792Z,100.00
2023-01-03T22:57:35.388Z,100.00
2023-01-03T23:00:02.325Z,100.00
2023-01-03T23:02:29.803Z,100.00
2023-01-03T23:04:57.262Z,100.00
2023-01-03T23:07:23.827Z,100.00
2023-01-03T23:09:50.371Z,100.00
2023-01-03T23:12:35.434Z,100.00
2023-01-03T23:15:02.438Z,100.00
2023-01-03T23:17:47.527Z,100.00
2023-01-03T23:20:14.086Z,100.00
2023-01-03T23:22:40.674Z,100.00
2023-01-03T23:25:08.016Z,100.00
2023-01-03T23:27:34.751Z,100.00
2023-01-03T23:30:01.555Z,100.00
2023-01-03T23:32:28.071Z,100.00
2023-01-03T23:34:54.599Z,100.00
2023-01-03T23:37:21.099Z,100.00
2023-01-03T23:39:47.609Z,100.00
2023-01-03T23:42:14.088Z,100.00
2023-01-03T23:44:41.364Z,100.00
2023-01-03T23:47:12.253Z,100.00
2023-01-03T23:49:39.414Z,100.00
2023-01-03T23:52:05.946Z,100.00
2023-01-03T23:54:32.612Z,100.00
2023-01-03T23:56:59.138Z,100.00
2023-01-03T23:59:25.615Z,100.00
